Time;durP1;ratioP1;P1;durP2;ratioP2;P2;SDS_P1;SDS_P2;PMS_P1;PMS_P2;Temp;Humidity;BMP_temperature;BMP_pressure;BME280_temperature;BME280_humidity;BME280_pressure;Samples;Min_cycle;Max_cycle;Signal;HPM_P1;HPM_P2
2022/09/09 00:02:02;;;;;;;6.90;3.10;;;;;;;12.48;51.83;100876.61;1717927;83;21026;-63
2022/09/09 00:04:39;;;;;;;9.20;3.17;;;;;;;12.47;51.90;100875.44;1717777;82;21094;-61
2022/09/09 00:07:40;;;;;;;7.22;2.80;;;;;;;12.47;51.94;100875.44;1711189;82;21502;-64
2022/09/09 00:10:33;;;;;;;8.35;2.72;;;;;;;12.46;51.98;100873.73;1717959;83;21039;-62
2022/09/09 00:13:32;;;;;;;6.58;2.80;;;;;;;12.45;52.02;100874.78;1718026;82;21071;-64
2022/09/09 00:16:19;;;;;;;7.37;3.05;;;;;;;12.44;52.05;100880.80;1712321;82;21082;-62
2022/09/09 00:19:27;;;;;;;5.75;2.75;;;;;;;12.42;52.04;100880.68;1717795;83;21058;-62
2022/09/09 00:22:04;;;;;;;4.95;2.72;;;;;;;12.40;52.08;100887.75;1717688;83;21067;-64
2022/09/09 00:24:39;;;;;;;5.12;2.40;;;;;;;12.37;52.04;100880.75;1700899;83;21109;-63
2022/09/09 00:27:16;;;;;;;6.53;2.80;;;;;;;12.32;52.15;100883.73;1711883;83;21058;-61
2022/09/09 00:29:55;;;;;;;5.28;2.55;;;;;;;12.28;52.27;100888.77;1707046;83;21027;-62
2022/09/09 00:32:28;;;;;;;6.28;3.00;;;;;;;12.26;52.31;100896.88;1717755;83;21011;-64
2022/09/09 00:35:23;;;;;;;4.83;2.67;;;;;;;12.22;52.55;100896.95;1688746;83;21055;-65
2022/09/09 00:37:56;;;;;;;6.58;2.77;;;;;;;12.15;52.67;100901.01;1694651;83;21448;-64
2022/09/09 00:40:37;;;;;;;7.85;3.10;;;;;;;12.12;52.82;100907.41;1718013;83;21062;-64
2022/09/09 00:43:32;;;;;;;5.62;2.60;;;;;;;12.10;52.90;100908.13;1705487;83;21060;-62
2022/09/09 00:46:23;;;;;;;5.72;2.70;;;;;;;12.11;52.97;100907.09;1711293;83;21510;-64
2022/09/09 00:49:07;;;;;;;5.80;2.60;;;;;;;12.10;53.04;100913.11;1704984;83;21545;-61
2022/09/09 00:52:10;;;;;;;6.42;2.92;;;;;;;12.08;53.11;100913.83;1716383;83;21019;-63
2022/09/09 00:55:00;;;;;;;6.87;2.50;;;;;;;12.08;53.17;100917.09;1698455;83;21095;-62
2022/09/09 00:57:34;;;;;;;6.42;2.70;;;;;;;12.04;53.22;100923.50;1706706;82;21045;-64
2022/09/09 01:00:32;;;;;;;4.30;2.60;;;;;;;12.00;53.30;100916.69;1716265;83;21030;-62
2022/09/09 01:03:38;;;;;;;7.25;2.80;;;;;;;12.01;53.36;100924.73;1727093;83;21105;-63
2022/09/09 01:06:32;;;;;;;8.68;2.83;;;;;;;11.99;53.43;100920.48;1727360;82;21054;-64
2022/09/09 01:09:20;;;;;;;5.37;2.80;;;;;;;11.97;53.52;100919.83;1727397;83;21054;-63
2022/09/09 01:12:17;;;;;;;4.58;2.50;;;;;;;11.96;53.61;100920.88;1727535;83;21062;-63
2022/09/09 01:14:56;;;;;;;6.53;2.77;;;;;;;11.94;53.67;100924.34;1727257;82;21019;-61
2022/09/09 01:17:30;;;;;;;5.50;2.60;;;;;;;11.92;53.71;100928.65;1728094;83;21098;-63
2022/09/09 01:20:36;;;;;;;4.78;2.55;;;;;;;11.90;53.80;100934.00;1727570;81;21026;-62
2022/09/09 01:23:23;;;;;;;4.35;2.42;;;;;;;11.87;53.90;100933.02;1727333;82;21073;-64
2022/09/09 01:26:25;;;;;;;5.50;2.58;;;;;;;11.83;54.03;100925.69;1725923;82;21023;-62
2022/09/09 01:28:55;;;;;;;4.15;2.20;;;;;;;11.78;54.16;100924.05;1727589;82;21085;-62
2022/09/09 01:31:33;;;;;;;5.03;2.30;;;;;;;11.80;54.21;100926.59;1726747;83;21101;-62
2022/09/09 01:34:03;;;;;;;5.28;2.40;;;;;;;11.82;54.19;100923.14;1707180;83;21084;-62
2022/09/09 01:36:50;;;;;;;3.70;2.40;;;;;;;11.81;54.22;100927.78;1683148;84;21163;-63
2022/09/09 01:39:20;;;;;;;;;;;;;;;11.78;54.30;100924.05;1691817;84;21055;-63
2022/09/09 01:41:54;;;;;;;5.75;2.60;;;;;;;11.71;54.41;100919.81;1707113;83;20183;-62
2022/09/09 01:44:24;;;;;;;3.83;2.33;;;;;;;11.66;54.51;100911.80;1707740;84;21056;-62
2022/09/09 01:46:53;;;;;;;4.35;2.20;;;;;;;11.65;54.59;100909.57;1707100;83;21059;-62
2022/09/09 01:49:24;;;;;;;3.90;2.22;;;;;;;11.63;54.60;100919.05;1707696;84;21557;-63
2022/09/09 01:51:55;;;;;;;5.78;2.20;;;;;;;11.65;54.62;100916.44;1695877;84;21020;-63
2022/09/09 01:54:31;;;;;;;4.30;2.08;;;;;;;11.65;54.51;100921.07;1706188;83;21134;-62
2022/09/09 01:57:27;;;;;;;8.70;2.70;;;;;;;11.65;54.52;100910.09;1705270;84;21060;-62
2022/09/09 02:00:05;;;;;;;3.30;2.10;;;;;;;11.64;54.43;100905.13;1726017;83;21078;-63
2022/09/09 02:02:53;;;;;;;3.83;2.15;;;;;;;11.60;54.46;100901.06;1713584;83;21027;-63
2022/09/09 02:05:43;;;;;;;4.20;2.10;;;;;;;11.62;54.45;100907.21;1725209;83;21019;-64
2022/09/09 02:08:29;;;;;;;4.42;2.50;;;;;;;11.62;54.41;100902.25;1724914;83;21029;-62
2022/09/09 02:11:24;;;;;;;3.77;2.10;;;;;;;11.59;54.36;100907.59;1721981;83;21027;-63
2022/09/09 02:14:03;;;;;;;7.05;2.15;;;;;;;11.58;54.41;100920.99;1725198;82;21031;-63
2022/09/09 02:16:50;;;;;;;;;;;;;;;11.61;54.43;100921.98;1727655;82;21435;-63
2022/09/09 02:19:32;;;;;;;4.67;2.20;;;;;;;11.60;54.53;100919.42;1725125;83;20162;-63
2022/09/09 02:22:09;;;;;;;7.92;2.90;;;;;;;11.54;54.63;100926.53;1724817;83;21039;-63
2022/09/09 02:24:40;;;;;;;8.45;2.65;;;;;;;11.51;54.83;100921.42;1710696;83;21110;-62
2022/09/09 02:27:12;;;;;;;5.42;2.30;;;;;;;11.49;54.88;100916.65;1723642;83;21459;-63
2022/09/09 02:29:42;;;;;;;4.00;2.30;;;;;;;11.46;55.00;100910.17;1714332;83;21019;-63
2022/09/09 02:32:22;;;;;;;5.97;2.45;;;;;;;11.43;55.20;100913.30;1710816;83;21058;-63
2022/09/09 02:34:57;;;;;;;4.37;2.50;;;;;;;11.40;55.10;100915.91;1724837;82;21093;-63
2022/09/09 02:37:33;;;;;;;5.55;2.22;;;;;;;11.37;55.10;100910.80;1725264;82;21090;-62
2022/09/09 02:40:07;;;;;;;6.90;2.55;;;;;;;11.37;55.15;100911.31;1725263;83;21018;-62
2022/09/09 02:42:44;;;;;;;5.83;2.58;;;;;;;11.37;55.15;100915.43;1712242;83;21442;-64
2022/09/09 02:45:18;;;;;;;4.87;2.35;;;;;;;11.35;55.13;100915.63;1725861;82;21463;-62
2022/09/09 02:48:10;;;;;;;4.28;2.30;;;;;;;11.34;55.13;100911.18;1700535;83;21492;-63
2022/09/09 02:50:45;;;;;;;5.40;2.52;;;;;;;11.34;55.11;100906.21;1725603;83;21027;-63
2022/09/09 02:53:20;;;;;;;5.22;2.62;;;;;;;11.33;55.12;100907.25;1725305;83;21034;-62
2022/09/09 02:55:57;;;;;;;5.30;2.37;;;;;;;11.34;55.12;100911.70;1715320;81;21113;-63
2022/09/09 02:58:28;;;;;;;3.37;2.17;;;;;;;11.29;55.25;100901.81;1728349;83;21093;-61
2022/09/09 03:01:02;;;;;;;5.87;2.67;;;;;;;11.26;55.34;100903.56;1728288;83;21065;-64
2022/09/09 03:03:33;;;;;;;4.87;2.30;;;;;;;11.25;55.39;100914.21;1727887;83;21030;-63
2022/09/09 03:06:05;;;;;;;5.35;2.55;;;;;;;11.20;55.50;100912.03;1727908;83;21118;-62
2022/09/09 03:08:34;;;;;;;3.47;2.20;;;;;;;11.18;55.58;100911.89;1715575;83;21503;-62
2022/09/09 03:11:04;;;;;;;5.28;2.67;;;;;;;11.14;55.68;100909.20;1728524;81;21481;-63
2022/09/09 03:13:35;;;;;;;5.60;2.40;;;;;;;11.13;55.69;100918.47;1715335;81;21090;-62
2022/09/09 03:16:07;;;;;;;5.97;2.65;;;;;;;11.12;55.72;100912.13;1728397;83;21026;-62
2022/09/09 03:18:38;;;;;;;5.87;2.42;;;;;;;11.14;55.76;100918.80;1727439;83;21047;-63
2022/09/09 03:21:08;;;;;;;7.08;2.62;;;;;;;11.13;55.78;100919.84;1728127;82;21030;-63
2022/09/09 03:23:39;;;;;;;3.90;2.35;;;;;;;11.11;55.79;100929.11;1707355;83;21069;-63
2022/09/09 03:26:10;;;;;;;4.58;2.40;;;;;;;11.13;55.80;100931.66;1728084;83;21066;-62
2022/09/09 03:28:46;;;;;;;5.15;2.37;;;;;;;11.15;55.78;100921.87;1728053;83;21494;-65
2022/09/09 03:31:19;;;;;;;6.53;2.92;;;;;;;11.17;55.75;100926.13;1727844;83;21448;-63
2022/09/09 03:33:49;;;;;;;5.85;2.67;;;;;;;11.17;55.66;100930.77;1715632;83;21078;-63
2022/09/09 03:36:19;;;;;;;5.53;2.50;;;;;;;11.13;55.73;100926.70;1687720;83;21499;-63
2022/09/09 03:38:50;;;;;;;4.45;2.72;;;;;;;11.09;55.82;100924.33;1717699;83;21475;-63
2022/09/09 03:41:23;;;;;;;4.67;2.30;;;;;;;11.08;55.81;100935.48;1717728;83;21095;-64
2022/09/09 03:43:54;;;;;;;5.45;3.05;;;;;;;11.07;55.86;100937.38;1707428;83;21003;-65
2022/09/09 03:46:25;;;;;;;5.30;2.67;;;;;;;11.11;55.84;100939.23;1717694;83;21032;-63
2022/09/09 03:48:55;;;;;;;6.08;2.40;;;;;;;11.12;55.81;100936.81;1687593;83;21043;-64
2022/09/09 03:51:25;;;;;;;5.00;2.30;;;;;;;11.08;55.80;100926.73;1717820;82;20999;-62
2022/09/09 03:53:57;;;;;;;4.30;2.40;;;;;;;11.06;55.84;100923.33;1715396;82;21074;-63
2022/09/09 03:56:34;;;;;;;5.28;2.40;;;;;;;11.00;55.94;100934.17;1692356;82;21122;-63
2022/09/09 03:59:04;;;;;;;3.98;2.12;;;;;;;10.97;56.04;100940.03;1691170;84;21083;-64
2022/09/09 04:01:34;;;;;;;5.42;2.67;;;;;;;10.99;56.04;100941.55;1725822;83;20983;-63
2022/09/09 04:04:03;;;;;;;7.53;2.85;;;;;;;11.02;55.98;100941.69;1713202;83;21022;-64
2022/09/09 04:06:33;;;;;;;4.70;2.25;;;;;;;11.01;56.01;100940.84;1726727;82;21040;-63
2022/09/09 04:09:03;;;;;;;5.03;2.33;;;;;;;10.97;56.01;100943.62;1726142;82;21443;-64
2022/09/09 04:11:33;;;;;;;3.60;2.40;;;;;;;10.98;56.04;100938.47;1725461;83;21071;-65
2022/09/09 04:14:05;;;;;;;4.92;2.72;;;;;;;10.98;56.00;100937.10;1693425;83;21102;-62
2022/09/09 04:16:37;;;;;;;7.47;2.83;;;;;;;10.99;55.98;100937.95;1718521;83;21463;-65
2022/09/09 04:19:07;;;;;;;8.65;3.12;;;;;;;11.00;55.98;100954.73;1724927;83;21458;-64
2022/09/09 04:21:37;;;;;;;5.17;2.58;;;;;;;11.02;55.99;100954.88;1724665;82;21050;-69
2022/09/09 04:24:07;;;;;;;4.35;2.67;;;;;;;11.03;56.00;100953.84;1725490;82;21447;-65
2022/09/09 04:26:37;;;;;;;4.90;2.72;;;;;;;11.02;56.00;100949.39;1725702;83;21027;-64
2022/09/09 04:29:07;;;;;;;6.53;3.60;;;;;;;11.02;56.03;100955.40;1724198;83;21055;-66
2022/09/09 04:31:41;;;;;;;9.10;2.60;;;;;;;11.01;56.04;100966.89;1715373;83;21011;-65
2022/09/09 04:34:10;;;;;;;4.22;2.50;;;;;;;10.99;56.08;100972.23;1725387;82;21311;-65
2022/09/09 04:36:40;;;;;;;6.55;2.80;;;;;;;10.98;56.10;100970.00;1725460;83;21062;-62
2022/09/09 04:39:11;;;;;;;5.72;3.00;;;;;;;10.94;56.24;100973.30;1724308;83;21027;-64
2022/09/09 04:41:47;;;;;;;4.62;2.90;;;;;;;10.87;56.41;100975.94;1715343;83;21470;-64
2022/09/09 04:44:17;;;;;;;5.45;2.40;;;;;;;10.86;56.54;100979.72;1725357;83;21074;-63
2022/09/09 04:46:46;;;;;;;7.12;2.77;;;;;;;10.88;56.59;100979.53;1725465;83;21026;-63
2022/09/09 04:49:15;;;;;;;5.45;2.50;;;;;;;10.91;56.53;100982.75;1712955;83;21042;-64
2022/09/09 04:51:46;;;;;;;7.53;2.77;;;;;;;10.93;56.49;100993.02;1713006;83;21046;-67
2022/09/09 04:54:16;;;;;;;6.47;2.62;;;;;;;10.92;56.54;100989.94;1725064;82;21007;-62
2022/09/09 04:56:46;;;;;;;5.58;2.83;;;;;;;10.94;56.54;100989.75;1722445;82;21109;-62
2022/09/09 04:59:15;;;;;;;5.05;2.60;;;;;;;10.94;56.66;100991.98;1725357;82;21030;-64
2022/09/09 05:01:47;;;;;;;6.55;2.72;;;;;;;10.93;56.73;100986.16;1723271;82;21066;-63
2022/09/09 05:04:16;;;;;;;6.15;2.72;;;;;;;10.92;56.77;100980.34;1725156;83;21059;-64
2022/09/09 05:06:45;;;;;;;5.10;2.60;;;;;;;10.94;56.80;100993.88;1725084;83;21558;-65
2022/09/09 05:09:15;;;;;;;4.85;2.37;;;;;;;10.93;56.85;100986.16;1713522;83;21451;-64
2022/09/09 05:11:46;;;;;;;6.55;2.65;;;;;;;10.94;56.87;100980.16;1708916;82;21089;-64
2022/09/09 05:14:21;;;;;;;5.30;2.85;;;;;;;10.96;56.82;100976.19;1720192;83;21007;-63
2022/09/09 05:16:51;;;;;;;8.58;2.83;;;;;;;11.00;56.79;100972.04;1725071;83;21063;-63
2022/09/09 05:19:20;;;;;;;6.20;2.92;;;;;;;11.00;56.60;100962.44;1725871;83;21447;-63
2022/09/09 05:21:51;;;;;;;6.62;2.58;;;;;;;11.02;56.62;100961.73;1714678;83;21074;-64
2022/09/09 05:24:23;;;;;;;8.10;3.15;;;;;;;11.08;56.63;100957.42;1725524;82;21027;-64
2022/09/09 05:26:59;;;;;;;6.12;2.75;;;;;;;11.14;56.55;100954.45;1708467;83;21058;-63
2022/09/09 05:29:26;;;;;;;5.97;3.20;;;;;;;11.18;56.32;100944.81;1707654;83;21086;-69
2022/09/09 05:31:57;;;;;;;5.08;2.70;;;;;;;11.17;56.23;100938.47;1725193;83;21804;-64
2022/09/09 05:34:27;;;;;;;5.33;2.62;;;;;;;11.23;56.17;100946.47;1712851;83;21458;-65
2022/09/09 05:36:57;;;;;;;6.33;3.00;;;;;;;11.28;56.04;100953.61;1714413;83;21094;-64
2022/09/09 05:39:27;;;;;;;6.53;3.67;;;;;;;11.34;55.91;100947.36;1725432;83;21475;-62
2022/09/09 05:41:57;;;;;;;7.30;3.90;;;;;;;11.38;55.75;100953.66;1701911;83;21153;-65
2022/09/09 05:44:27;;;;;;;9.25;4.35;;;;;;;11.44;55.68;100963.02;1725435;83;21071;-62
2022/09/09 05:46:57;;;;;;;7.47;3.77;;;;;;;11.50;55.61;100975.98;1713721;82;21059;-62
2022/09/09 05:49:27;;;;;;;8.53;3.33;;;;;;;11.56;55.39;100977.97;1725140;83;21438;-66
2022/09/09 05:51:57;;;;;;;8.85;3.00;;;;;;;11.57;55.27;100982.41;1724571;82;21038;-64
2022/09/09 05:54:27;;;;;;;5.22;2.87;;;;;;;11.56;55.13;100968.87;1725573;82;21038;-63
2022/09/09 05:56:59;;;;;;;6.47;3.35;;;;;;;11.53;55.08;100967.89;1725377;82;21103;-63
2022/09/09 05:59:29;;;;;;;5.58;3.17;;;;;;;11.53;55.02;100971.48;1725514;83;21035;-63
2022/09/09 06:01:59;;;;;;;6.50;3.20;;;;;;;11.54;55.03;100973.71;1724845;83;21077;-63
2022/09/09 06:04:32;;;;;;;8.45;3.02;;;;;;;11.58;55.10;100974.52;1724545;83;21475;-64
2022/09/09 06:07:02;;;;;;;7.42;3.02;;;;;;;11.66;55.06;100983.16;1720333;83;21054;-67
2022/09/09 06:09:32;;;;;;;10.53;4.05;;;;;;;11.73;54.98;100992.38;1719066;83;21174;-64
2022/09/09 06:12:02;;;;;;;9.50;3.60;;;;;;;11.74;54.89;101000.94;1712843;83;21475;-63
2022/09/09 06:14:36;;;;;;;11.18;3.65;;;;;;;11.77;54.81;100996.96;1665020;86;22002;-63
2022/09/09 06:17:07;;;;;;;6.97;3.10;;;;;;;11.81;55.01;100988.70;1644030;87;21070;-64
2022/09/09 06:19:38;;;;;;;8.68;3.00;;;;;;;11.86;54.72;100982.97;1648698;87;21129;-65
2022/09/09 06:22:12;;;;;;;7.03;3.22;;;;;;;11.91;54.62;100975.52;1615527;87;21070;-63
2022/09/09 06:24:40;;;;;;;5.20;2.98;;;;;;;11.96;54.64;100984.89;1637297;87;21070;-64
2022/09/09 06:27:10;;;;;;;6.70;3.20;;;;;;;12.01;54.52;100984.31;1634080;87;21102;-67
2022/09/09 06:29:41;;;;;;;7.65;3.12;;;;;;;12.04;54.34;100983.92;1648630;87;21050;-63
2022/09/09 06:32:10;;;;;;;6.85;3.20;;;;;;;12.09;54.13;100993.81;1652575;84;21056;-66
2022/09/09 06:34:40;;;;;;;9.10;3.45;;;;;;;12.12;54.06;100983.81;1714237;83;21063;-65
2022/09/09 06:37:10;;;;;;;9.13;3.25;;;;;;;12.17;54.12;100987.34;1720815;83;21062;-65
2022/09/09 06:39:43;;;;;;;5.72;3.05;;;;;;;12.21;53.92;100993.63;1719422;83;21051;-63
2022/09/09 06:42:13;;;;;;;8.45;3.00;;;;;;;12.24;53.88;100986.91;1713465;83;21095;-63
2022/09/09 06:44:47;;;;;;;7.83;3.22;;;;;;;12.27;53.82;100983.23;1713241;83;21161;-64
2022/09/09 06:47:29;;;;;;;5.95;3.37;;;;;;;12.32;53.70;100984.88;1694945;83;20999;-63
2022/09/09 06:49:59;;;;;;;7.03;3.00;;;;;;;12.37;53.58;100989.30;1706132;83;21524;-64
2022/09/09 06:52:29;;;;;;;9.48;3.10;;;;;;;12.40;53.40;100982.56;1725698;83;21050;-63
2022/09/09 06:54:58;;;;;;;5.40;2.85;;;;;;;12.45;53.30;100983.35;1712983;83;20995;-66
2022/09/09 06:57:27;;;;;;;5.40;3.10;;;;;;;12.50;53.22;100984.47;1727214;83;21015;-65
2022/09/09 06:59:58;;;;;;;10.88;2.83;;;;;;;12.58;53.12;100991.73;1725527;83;21066;-63
2022/09/09 07:02:28;;;;;;;7.03;2.95;;;;;;;12.65;52.88;100999.52;1728152;83;21070;-64
2022/09/09 07:05:00;;;;;;;8.40;2.87;;;;;;;12.72;52.69;100999.58;1727894;83;21078;-63
2022/09/09 07:07:30;;;;;;;10.08;4.60;;;;;;;12.79;52.55;101000.50;1728226;83;21086;-63
2022/09/09 07:10:00;;;;;;;10.35;3.22;;;;;;;12.87;52.44;101008.61;1715250;83;21062;-64
2022/09/09 07:12:32;;;;;;;5.95;2.92;;;;;;;12.96;52.25;101011.02;1710692;83;21062;-64
2022/09/09 07:15:01;;;;;;;8.33;2.60;;;;;;;13.08;52.12;101014.64;1711537;81;21075;-64
2022/09/09 07:17:31;;;;;;;6.62;2.20;;;;;;;13.18;51.81;101004.17;1715776;82;21074;-63
2022/09/09 07:20:02;;;;;;;6.37;2.33;;;;;;;13.27;51.62;101002.96;1715657;81;21026;-65
2022/09/09 07:22:33;;;;;;;6.83;2.75;;;;;;;13.35;51.26;100997.83;1717440;81;21126;-62
2022/09/09 07:25:05;;;;;;;4.80;2.40;;;;;;;13.44;50.97;100997.47;1728192;81;21431;-64
2022/09/09 07:27:36;;;;;;;6.97;3.00;;;;;;;13.52;50.82;100997.31;1728120;83;21047;-63
2022/09/09 07:30:09;;;;;;;6.17;2.70;;;;;;;13.58;50.50;100999.78;1727711;83;21086;-70
2022/09/09 07:32:39;;;;;;;6.03;2.17;;;;;;;13.62;50.31;101000.55;1727717;82;21090;-63
2022/09/09 07:35:09;;;;;;;4.30;2.02;;;;;;;13.66;49.63;101000.17;1727787;82;21050;-66
2022/09/09 07:37:38;;;;;;;5.20;2.10;;;;;;;13.68;49.48;100987.90;1728250;82;21026;-66
2022/09/09 07:40:10;;;;;;;3.70;2.08;;;;;;;13.74;49.29;100988.98;1727326;83;21111;-68
2022/09/09 07:42:41;;;;;;;5.28;2.00;;;;;;;13.80;49.13;100982.13;1728058;83;20997;-64
2022/09/09 07:45:11;;;;;;;4.58;1.95;;;;;;;13.88;49.24;100990.75;1727951;81;21054;-65
2022/09/09 07:47:42;;;;;;;3.50;2.27;;;;;;;13.96;49.13;100987.82;1726685;81;21081;-66
2022/09/09 07:50:12;;;;;;;4.42;1.90;;;;;;;14.06;48.97;100986.05;1722406;81;21014;-66
2022/09/09 07:52:41;;;;;;;5.53;1.72;;;;;;;14.28;48.54;100984.33;1697154;83;21087;-65
2022/09/09 07:55:10;;;;;;;3.10;1.60;;;;;;;14.66;47.64;100995.39;1715728;83;21082;-64
2022/09/09 07:57:43;;;;;;;5.83;1.80;;;;;;;15.11;46.01;100985.47;1725367;83;21038;-64
2022/09/09 08:00:14;;;;;;;3.85;1.90;;;;;;;15.47;45.17;100981.70;1725246;83;21062;-65
2022/09/09 08:02:46;;;;;;;3.12;1.80;;;;;;;15.86;44.53;100985.47;1713874;83;21019;-67
2022/09/09 08:05:16;;;;;;;5.60;1.65;;;;;;;16.24;43.77;100983.28;1725342;83;21047;-66
2022/09/09 08:07:47;;;;;;;9.48;1.70;;;;;;;16.75;42.41;100977.70;1721882;82;21043;-67
2022/09/09 08:10:17;;;;;;;3.42;1.55;;;;;;;17.18;41.53;100993.03;1725646;83;21074;-73
2022/09/09 08:12:52;;;;;;;6.67;2.80;;;;;;;17.58;40.14;100976.89;1714270;83;21018;-72
2022/09/09 08:15:45;;;;;;;7.35;2.25;;;;;;;17.84;39.50;100983.24;1725546;83;21047;-74
2022/09/09 08:18:14;;;;;;;8.43;2.10;;;;;;;18.15;39.04;100967.80;1715578;83;21051;-75
2022/09/09 08:20:44;;;;;;;5.37;2.22;;;;;;;18.47;38.45;100960.13;1727056;83;21077;-77
2022/09/09 08:23:14;;;;;;;5.78;1.87;;;;;;;18.72;38.32;100960.53;1725293;83;21018;-71
2022/09/09 08:25:45;;;;;;;2.65;1.42;;;;;;;19.00;37.12;100961.58;1725305;82;21483;-72
2022/09/09 08:28:15;;;;;;;4.60;1.37;;;;;;;19.06;36.52;100970.88;1725290;83;21074;-72
2022/09/09 08:30:43;;;;;;;4.85;1.42;;;;;;;19.14;36.33;100960.80;1712774;82;21034;-73
2022/09/09 08:33:12;;;;;;;5.62;1.50;;;;;;;19.25;36.56;100969.69;1725090;82;21509;-73
2022/09/09 08:35:52;;;;;;;5.17;1.60;;;;;;;19.37;35.74;100971.63;1712786;83;21043;-71
2022/09/09 08:38:21;;;;;;;3.52;1.65;;;;;;;19.37;35.22;100969.69;1718624;83;21094;-74
2022/09/09 08:40:53;;;;;;;3.87;1.75;;;;;;;19.35;35.38;100965.46;1724538;83;21099;-73
2022/09/09 08:43:23;;;;;;;9.63;3.55;;;;;;;19.43;35.52;100963.70;1725223;82;21094;-74
2022/09/09 08:46:09;;;;;;;2.70;1.72;;;;;;;19.50;35.30;100964.42;1725262;83;21082;-73
2022/09/09 08:48:52;;;;;;;3.02;1.27;;;;;;;19.56;34.90;100963.52;1725031;82;21411;-72
2022/09/09 08:51:22;;;;;;;4.33;1.70;;;;;;;19.49;34.13;100956.63;1718079;83;21031;-70
2022/09/09 08:53:50;;;;;;;3.45;1.85;;;;;;;19.47;33.87;100949.63;1722003;82;21059;-72
2022/09/09 08:56:24;;;;;;;5.03;1.87;;;;;;;19.45;34.03;100953.19;1731345;82;21046;-71
2022/09/09 08:58:57;;;;;;;2.05;1.42;;;;;;;19.42;34.10;100960.08;1728909;81;21564;-72
2022/09/09 09:02:17;;;;;;;7.97;2.30;;;;;;;19.36;33.90;100968.00;1727882;82;21548;-73
2022/09/09 09:04:53;;;;;;;3.72;1.30;;;;;;;19.27;34.25;100963.89;1725329;82;21036;-75
2022/09/09 09:07:56;;;;;;;2.72;1.40;;;;;;;19.19;34.96;100948.97;1728018;83;21034;-74
2022/09/09 09:10:51;;;;;;;3.35;1.45;;;;;;;19.14;34.87;100945.53;1719951;81;21070;-73
2022/09/09 09:13:47;;;;;;;6.25;1.50;;;;;;;18.94;34.67;100944.48;1718490;82;21047;-72
2022/09/09 09:16:28;;;;;;;4.75;1.77;;;;;;;18.79;34.88;100931.58;1714970;83;21933;-72
2022/09/09 09:18:57;;;;;;;4.83;1.95;;;;;;;18.72;34.61;100925.28;1727178;81;21089;-71
2022/09/09 09:21:47;;;;;;;3.45;1.80;;;;;;;18.59;34.41;100930.48;1727522;83;21023;-72
2022/09/09 09:24:23;;;;;;;4.17;1.50;;;;;;;18.43;34.74;100929.77;1727921;82;21046;-73
2022/09/09 09:26:52;;;;;;;3.67;2.10;;;;;;;18.28;35.03;100921.03;1727468;81;21024;-71
2022/09/09 09:29:21;;;;;;;4.22;1.40;;;;;;;18.20;35.30;100921.33;1728112;81;21063;-71
2022/09/09 09:31:57;;;;;;;2.95;1.50;;;;;;;18.18;35.28;100931.27;1707554;83;21038;-72
2022/09/09 09:34:29;;;;;;;4.55;1.52;;;;;;;18.22;34.97;100937.23;1690636;84;21050;-72
2022/09/09 09:37:02;;;;;;;2.20;1.67;;;;;;;18.24;35.22;100931.75;1712019;83;21532;-76
2022/09/09 09:39:38;;;;;;;10.68;2.40;;;;;;;18.28;34.92;100934.91;1707344;83;21082;-73
2022/09/09 09:42:14;;;;;;;4.85;2.12;;;;;;;18.25;34.80;100940.92;1725065;83;21070;-71
2022/09/09 09:44:46;;;;;;;11.53;5.03;;;;;;;18.27;34.96;100938.77;1727952;81;21092;-71
2022/09/09 09:47:21;;;;;;;4.97;2.65;;;;;;;18.30;34.83;100938.29;1722807;82;21098;-72
2022/09/09 09:49:58;;;;;;;4.97;1.40;;;;;;;18.32;34.52;100935.59;1721111;81;21098;-71
2022/09/09 09:52:29;;;;;;;1.87;1.30;;;;;;;18.37;34.42;100925.16;1706260;83;21094;-71
2022/09/09 09:55:01;;;;;;;5.00;2.55;;;;;;;18.38;34.29;100933.25;1715446;83;21113;-74
2022/09/09 09:57:32;;;;;;;7.22;4.55;;;;;;;18.41;33.93;100931.94;1722884;81;21043;-71
2022/09/09 10:00:17;;;;;;;3.80;2.10;;;;;;;18.36;34.00;100923.47;1710381;83;21003;-73
2022/09/09 10:02:48;;;;;;;5.87;2.85;;;;;;;18.35;34.06;100927.33;1727732;82;21512;-72
2022/09/09 10:05:27;;;;;;;5.35;2.00;;;;;;;18.35;34.01;100929.56;1714918;82;21007;-73
2022/09/09 10:08:11;;;;;;;3.42;2.08;;;;;;;18.38;34.34;100929.63;1727283;83;21071;-71
2022/09/09 10:11:11;;;;;;;3.83;2.30;;;;;;;18.45;34.54;100942.87;1718462;83;21099;-72
2022/09/09 10:14:14;;;;;;;2.77;1.60;;;;;;;18.50;33.97;100932.45;1693116;83;21551;-71
2022/09/09 10:16:52;;;;;;;4.53;1.98;;;;;;;18.41;34.04;100932.48;1717723;83;21264;-72
2022/09/09 10:19:31;;;;;;;3.47;1.67;;;;;;;18.41;34.15;100936.09;1717470;82;21051;-72
2022/09/09 10:22:25;;;;;;;4.08;1.57;;;;;;;18.39;34.32;100931.33;1717698;83;21070;-72
2022/09/09 10:25:24;;;;;;;6.72;2.00;;;;;;;18.41;34.61;100931.09;1697698;83;21062;-72
2022/09/09 10:28:10;;;;;;;6.72;1.70;;;;;;;18.46;33.82;100923.75;1708840;83;21086;-73
2022/09/09 10:31:09;;;;;;;3.55;1.42;;;;;;;18.38;33.87;100933.80;1707095;82;21034;-71
2022/09/09 10:33:58;;;;;;;2.35;1.50;;;;;;;18.31;34.19;100927.50;1706246;83;20980;-72
2022/09/09 10:36:27;;;;;;;2.02;1.52;;;;;;;18.32;34.00;100922.25;1703783;83;21083;-74
2022/09/09 10:39:05;;;;;;;3.35;1.82;;;;;;;18.33;34.04;100920.63;1717520;83;21015;-73
2022/09/09 10:41:49;;;;;;;4.45;2.27;;;;;;;18.38;33.57;100919.92;1712518;82;21499;-72
2022/09/09 10:44:41;;;;;;;3.87;1.60;;;;;;;18.45;32.76;100912.34;1700757;83;21530;-72
2022/09/09 10:47:49;;;;;;;4.33;1.65;;;;;;;18.51;32.46;100921.64;1715370;82;21062;-72
2022/09/09 10:50:45;;;;;;;2.83;1.80;;;;;;;18.58;32.88;100915.45;1689644;82;21504;-76
2022/09/09 10:53:36;;;;;;;5.05;1.70;;;;;;;18.65;33.29;100915.67;1696741;83;21471;-74
2022/09/09 10:56:12;;;;;;;6.60;2.33;;;;;;;18.73;33.27;100913.64;1717524;82;21075;-69
2022/09/09 10:58:48;;;;;;;2.42;1.40;;;;;;;18.78;33.57;100919.31;1705478;82;21480;-68
2022/09/09 11:01:24;;;;;;;3.65;1.45;;;;;;;18.78;32.64;100909.60;1695831;83;21035;-69
2022/09/09 11:04:02;;;;;;;4.17;1.62;;;;;;;18.74;32.37;100920.34;1700857;83;21095;-68
2022/09/09 11:06:39;;;;;;;2.87;1.45;;;;;;;18.71;32.36;100926.37;1712922;83;21003;-70
2022/09/09 11:09:14;;;;;;;2.58;1.20;;;;;;;18.70;32.25;100926.06;1709295;83;21070;-69
2022/09/09 11:11:55;;;;;;;7.55;1.80;;;;;;;18.71;32.61;100922.20;1717516;82;21058;-63
2022/09/09 11:15:06;;;;;;;3.75;2.00;;;;;;;18.74;32.51;100921.73;1717515;83;21483;-65
2022/09/09 11:17:46;;;;;;;5.33;1.40;;;;;;;18.74;32.29;100925.05;1665935;85;21037;-64
2022/09/09 11:20:17;;;;;;;5.15;1.52;;;;;;;18.66;32.14;100917.38;1672786;85;21508;-63
2022/09/09 11:22:52;;;;;;;3.35;1.50;;;;;;;18.65;32.37;100919.84;1716088;83;21082;-64
2022/09/09 11:25:32;;;;;;;4.62;1.55;;;;;;;18.69;32.19;100924.38;1725274;83;21071;-63
2022/09/09 11:28:31;;;;;;;3.83;1.62;;;;;;;18.72;32.45;100913.34;1727910;83;20987;-64
2022/09/09 11:31:36;;;;;;;3.33;1.52;;;;;;;18.77;31.88;100917.63;1727838;83;21098;-64
2022/09/09 11:34:23;;;;;;;4.40;2.00;;;;;;;18.83;32.09;100926.39;1727941;83;21498;-65
2022/09/09 11:37:06;;;;;;;3.17;1.62;;;;;;;18.84;31.80;100921.14;1727961;83;21132;-65
2022/09/09 11:40:11;;;;;;;9.28;2.02;;;;;;;18.84;31.61;100923.91;1715509;82;21071;-67
2022/09/09 11:42:42;;;;;;;4.25;1.50;;;;;;;18.84;31.64;100919.75;1727556;82;21086;-66
2022/09/09 11:45:28;;;;;;;5.80;1.67;;;;;;;18.84;31.59;100916.97;1727958;83;21018;-64
2022/09/09 11:48:00;;;;;;;3.47;1.55;;;;;;;18.82;31.50;100913.05;1723084;83;21026;-66
2022/09/09 11:50:32;;;;;;;6.83;1.82;;;;;;;18.84;31.52;100910.03;1722110;81;21484;-67
2022/09/09 11:53:20;;;;;;;6.35;1.45;;;;;;;18.83;31.65;100902.78;1727699;83;21087;-64
2022/09/09 11:56:09;;;;;;;9.65;1.90;;;;;;;18.80;31.75;100901.33;1715517;83;21074;-65
2022/09/09 11:58:45;;;;;;;3.95;1.80;;;;;;;18.80;31.72;100893.00;1707978;82;21050;-66
2022/09/09 12:01:44;;;;;;;11.88;3.00;;;;;;;18.83;31.91;100886.12;1725351;82;21546;-70
2022/09/09 12:04:28;;;;;;;5.17;1.80;;;;;;;18.85;31.31;100897.84;1686737;84;21259;-68
2022/09/09 12:07:26;;;;;;;8.55;2.12;;;;;;;18.82;31.34;100888.06;1706652;83;21067;-66
2022/09/09 12:10:21;;;;;;;5.30;1.75;;;;;;;18.84;31.67;100888.66;1682692;83;21062;-67